createdAt,value
2023-03-28T00:02:15.809Z,98927.06
2023-03-28T00:04:42.368Z,98920.06
2023-03-28T00:07:09.031Z,98922.41
2023-03-28T00:09:36.830Z,98933.13
2023-03-28T00:12:03.493Z,98936.66
2023-03-28T00:14:29.969Z,98929.09
2023-03-28T00:16:57.214Z,98919.63
2023-03-28T00:19:23.709Z,98931.06
2023-03-28T00:21:51.188Z,98931.41
2023-03-28T00:24:21.262Z,98936.84
2023-03-28T00:26:54.169Z,98929.59
2023-03-28T00:29:22.397Z,98927.31
2023-03-28T00:31:50.252Z,98940.97
2023-03-28T00:34:17.315Z,98941.81
2023-03-28T00:36:43.792Z,98935.94
2023-03-28T00:39:10.922Z,98946.22
2023-03-28T00:41:42.823Z,98935.03
2023-03-28T00:44:45.022Z,98935.88
2023-03-28T00:47:55.454Z,98937.84
2023-03-28T00:50:40.936Z,98940.91
2023-03-28T00:53:13.777Z,98928.00
2023-03-28T00:55:42.645Z,98936.19
2023-03-28T00:58:18.226Z,98925.28
2023-03-28T01:00:49.081Z,98928.66
2023-03-28T01:03:18.796Z,98924.56
2023-03-28T01:05:47.900Z,98927.19
2023-03-28T01:08:20.661Z,98934.66
2023-03-28T01:10:47.956Z,98927.72
2023-03-28T01:13:19.865Z,98931.94
2023-03-28T01:15:49.739Z,98934.06
2023-03-28T01:18:18.541Z,98924.00
2023-03-28T01:20:58.417Z,98917.47
2023-03-28T01:23:43.709Z,98917.84
2023-03-28T01:26:32.855Z,98910.44
2023-03-28T01:29:37.245Z,98909.63
2023-03-28T01:32:03.679Z,98891.88
2023-03-28T01:34:48.537Z,98902.88
2023-03-28T01:37:46.130Z,98888.88
2023-03-28T01:40:38.501Z,98879.34
2023-03-28T01:43:26.539Z,98876.91
2023-03-28T01:46:22.037Z,98863.66
2023-03-28T01:48:59.794Z,98858.91
2023-03-28T01:51:44.840Z,98873.13
2023-03-28T01:54:30.346Z,98882.81
2023-03-28T01:57:05.961Z,98883.09
2023-03-28T01:59:39.137Z,98895.22
2023-03-28T02:02:15.883Z,98894.94
2023-03-28T02:04:45.276Z,98887.72
2023-03-28T02:07:16.005Z,98886.91
2023-03-28T02:09:47.792Z,98883.19
2023-03-28T02:12:25.974Z,98886.19
2023-03-28T02:14:56.280Z,98883.56
2023-03-28T02:17:26.358Z,98892.94
2023-03-28T02:19:59.328Z,98888.66
2023-03-28T02:22:35.365Z,98883.81
2023-03-28T02:25:02.333Z,98871.94
2023-03-28T02:27:28.852Z,98878.78
2023-03-28T02:29:55.571Z,98868.13
2023-03-28T02:32:23.748Z,98879.16
2023-03-28T02:34:53.524Z,98879.81
2023-03-28T02:37:54.216Z,98877.03
2023-03-28T02:40:46.710Z,98849.78
2023-03-28T02:43:34.801Z,98856.59
2023-03-28T02:46:12.211Z,98853.16
2023-03-28T02:48:47.671Z,98847.06
2023-03-28T02:51:20.185Z,98842.59
2023-03-28T02:54:08.571Z,98842.88
2023-03-28T02:56:46.481Z,98834.28
2023-03-28T02:59:26.123Z,98837.75
2023-03-28T03:01:53.156Z,98845.31
2023-03-28T03:04:19.773Z,98842.88
2023-03-28T03:06:48.488Z,98832.78
2023-03-28T03:09:17.796Z,98837.53
2023-03-28T03:11:44.933Z,98836.53
2023-03-28T03:14:12.209Z,98850.59
2023-03-28T03:16:38.787Z,98841.47
2023-03-28T03:19:05.623Z,98828.50
2023-03-28T03:21:32.104Z,98816.38
2023-03-28T03:23:58.597Z,98829.81
2023-03-28T03:26:25.076Z,98830.16
2023-03-28T03:28:51.492Z,98825.59
2023-03-28T03:31:21.515Z,98838.00
2023-03-28T03:33:51.236Z,98825.78
2023-03-28T03:36:20.552Z,98825.91
2023-03-28T03:38:48.693Z,98831.47
2023-03-28T03:41:15.380Z,98814.22
2023-03-28T03:43:41.970Z,98826.44
2023-03-28T03:46:08.545Z,98831.97
2023-03-28T03:48:35.314Z,98829.63
2023-03-28T03:51:01.976Z,98822.06
2023-03-28T03:53:28.476Z,98832.13
2023-03-28T03:56:00.150Z,98827.00
2023-03-28T03:58:26.880Z,98833.28
2023-03-28T04:00:53.437Z,98838.97
2023-03-28T04:03:24.519Z,98844.47
2023-03-28T04:05:52.858Z,98840.72
2023-03-28T04:08:22.462Z,98835.59
2023-03-28T04:10:50.864Z,98847.16
2023-03-28T04:13:17.302Z,98825.31
2023-03-28T04:15:46.423Z,98841.91
2023-03-28T04:18:15.362Z,98837.53
2023-03-28T04:20:43.407Z,98834.47
2023-03-28T04:23:10.189Z,98836.53
2023-03-28T04:25:36.898Z,98843.13
2023-03-28T04:28:03.611Z,98842.75
2023-03-28T04:30:30.410Z,98835.88
2023-03-28T04:32:59.126Z,98829.00
2023-03-28T04:35:25.687Z,98852.44
2023-03-28T04:37:53.623Z,98835.84
2023-03-28T04:40:22.012Z,98835.16
2023-03-28T04:42:48.562Z,98846.03
2023-03-28T04:45:17.693Z,98849.75
2023-03-28T04:47:55.693Z,98839.75
2023-03-28T04:50:23.212Z,98826.66
2023-03-28T04:52:51.736Z,98839.00
2023-03-28T04:55:18.309Z,98840.34
2023-03-28T04:57:44.767Z,98835.56
2023-03-28T05:00:16.932Z,98830.19
2023-03-28T05:02:43.795Z,98833.81
2023-03-28T05:05:10.379Z,98826.34
2023-03-28T05:07:37.009Z,98815.81
2023-03-28T05:10:04.301Z,98828.09
2023-03-28T05:12:30.947Z,98817.69
2023-03-28T05:14:57.438Z,98823.31
2023-03-28T05:17:24.741Z,98816.50
2023-03-28T05:19:54.087Z,98820.56
2023-03-28T05:22:23.745Z,98829.69
2023-03-28T05:24:54.069Z,98815.59
2023-03-28T05:27:21.827Z,98819.59
2023-03-28T05:29:50.248Z,98820.06
2023-03-28T05:32:16.795Z,98825.03
2023-03-28T05:34:43.347Z,98828.59
2023-03-28T05:37:09.893Z,98824.06
2023-03-28T05:39:36.304Z,98827.09
2023-03-28T05:42:02.825Z,98830.41
2023-03-28T05:44:29.310Z,98816.50
2023-03-28T05:46:55.844Z,98803.91
2023-03-28T05:49:22.545Z,98830.03
2023-03-28T05:51:51.564Z,98821.56
2023-03-28T05:54:18.288Z,98820.53
2023-03-28T05:56:44.807Z,98823.44
2023-03-28T05:59:11.732Z,98823.59
2023-03-28T06:01:40.135Z,98833.75
2023-03-28T06:04:08.809Z,98830.16
2023-03-28T06:06:35.365Z,98821.19
2023-03-28T06:09:01.875Z,98835.09
2023-03-28T06:11:28.386Z,98831.66
2023-03-28T06:13:54.911Z,98834.06
2023-03-28T06:16:30.496Z,98828.13
2023-03-28T06:19:10.342Z,98828.13
2023-03-28T06:21:43.509Z,98831.59
2023-03-28T06:24:11.178Z,98830.72
2023-03-28T06:26:37.772Z,98823.91
2023-03-28T06:29:06.025Z,98839.59
2023-03-28T06:31:32.930Z,98821.66
2023-03-28T06:33:59.406Z,98815.69
2023-03-28T06:36:26.177Z,98826.59
2023-03-28T06:38:53.571Z,98819.63
2023-03-28T06:41:23.911Z,98828.13
2023-03-28T06:43:55.778Z,98843.91
2023-03-28T06:46:22.277Z,98830.19
2023-03-28T06:48:51.840Z,98827.66
2023-03-28T06:51:18.291Z,98833.53
2023-03-28T06:53:44.822Z,98828.38
2023-03-28T06:56:12.288Z,98833.22
2023-03-28T06:58:39.346Z,98834.28
2023-03-28T07:01:06.377Z,98830.03
2023-03-28T07:03:32.969Z,98834.41
2023-03-28T07:06:04.690Z,98845.88
2023-03-28T07:08:31.119Z,98841.78
2023-03-28T07:10:57.737Z,98840.13
2023-03-28T07:13:24.351Z,98841.50
2023-03-28T07:16:05.207Z,98850.41
2023-03-28T07:18:32.583Z,98833.88
2023-03-28T07:21:03.927Z,98845.91
2023-03-28T07:23:31.424Z,98840.06
2023-03-28T07:25:58.112Z,98845.50
2023-03-28T07:28:24.783Z,98840.56
2023-03-28T07:30:54.962Z,98837.78
2023-03-28T07:33:30.859Z,98837.03
2023-03-28T07:36:14.845Z,98837.69
2023-03-28T07:38:42.032Z,98836.47
2023-03-28T07:41:09.090Z,98835.41
2023-03-28T07:43:36.057Z,98833.56
2023-03-28T07:46:11.591Z,98829.16
2023-03-28T07:48:38.589Z,98821.03
2023-03-28T07:51:06.430Z,98814.25
2023-03-28T07:53:34.537Z,98809.34
2023-03-28T07:56:01.455Z,98816.72
2023-03-28T07:58:27.914Z,98800.47
2023-03-28T08:00:54.842Z,98790.25
2023-03-28T08:03:24.569Z,98779.97
2023-03-28T08:05:52.095Z,98784.59
2023-03-28T08:08:23.495Z,98792.16
2023-03-28T08:10:54.432Z,98782.06
2023-03-28T08:13:24.577Z,98772.81
2023-03-28T08:15:57.782Z,98772.41
2023-03-28T08:18:26.293Z,98786.88
2023-03-28T08:20:59.682Z,98799.84
2023-03-28T08:23:27.158Z,98810.25
2023-03-28T08:26:04.812Z,98803.84
2023-03-28T08:28:36.211Z,98806.34
2023-03-28T08:31:09.723Z,98815.56
2023-03-28T08:33:36.961Z,98794.69
2023-03-28T08:36:03.960Z,98815.91
2023-03-28T08:38:30.924Z,98799.53
2023-03-28T08:41:03.404Z,98804.41
2023-03-28T08:43:51.661Z,98805.22
2023-03-28T08:46:21.992Z,98794.06
2023-03-28T08:48:53.221Z,98795.94
2023-03-28T08:51:30.730Z,98794.22
2023-03-28T08:54:13.028Z,98791.81
2023-03-28T08:56:47.029Z,98786.03
2023-03-28T08:59:17.687Z,98784.22
2023-03-28T09:01:44.848Z,98783.34
2023-03-28T09:04:36.737Z,98774.16
2023-03-28T09:07:26.533Z,98774.94
2023-03-28T09:10:12.271Z,98781.91
2023-03-28T09:13:03.279Z,98775.22
2023-03-28T09:15:32.554Z,98773.19
2023-03-28T09:18:32.398Z,98765.97
2023-03-28T09:21:10.812Z,98780.63
2023-03-28T09:23:52.186Z,98786.94
2023-03-28T09:26:34.809Z,98778.94
2023-03-28T09:29:13.760Z,98782.06
2023-03-28T09:31:45.737Z,98773.09
2023-03-28T09:34:28.950Z,98777.50
2023-03-28T09:37:02.435Z,98779.78
2023-03-28T09:39:40.327Z,98772.13
2023-03-28T09:42:16.200Z,98760.97
2023-03-28T09:44:54.567Z,98748.50
2023-03-28T09:47:22.403Z,98765.66
2023-03-28T09:49:59.443Z,98746.38
2023-03-28T09:52:36.324Z,98750.47
2023-03-28T09:55:02.837Z,98746.16
2023-03-28T09:58:08.583Z,98736.16
2023-03-28T10:00:38.044Z,98743.47
2023-03-28T10:03:06.197Z,98735.91
2023-03-28T10:05:35.571Z,98744.09
2023-03-28T10:08:22.335Z,98739.22
2023-03-28T10:10:56.961Z,98733.00
2023-03-28T10:13:23.977Z,98727.28
2023-03-28T10:15:57.794Z,98710.53
2023-03-28T10:18:29.660Z,98732.97
2023-03-28T10:20:56.581Z,98707.84
2023-03-28T10:23:24.918Z,98693.56
2023-03-28T10:25:54.456Z,98697.31
2023-03-28T10:28:31.019Z,98706.28
2023-03-28T10:31:01.638Z,98692.06
2023-03-28T10:33:33.036Z,98670.94
2023-03-28T10:36:03.028Z,98664.41
2023-03-28T10:38:45.260Z,98670.97
2023-03-28T10:41:22.288Z,98667.03
2023-03-28T10:43:51.881Z,98661.25
2023-03-28T10:46:30.752Z,98668.25
2023-03-28T10:49:13.635Z,98672.31
2023-03-28T10:51:44.324Z,98667.66
2023-03-28T10:54:29.961Z,98661.56
2023-03-28T10:57:26.048Z,98655.28
2023-03-28T11:00:16.026Z,98668.56
2023-03-28T11:02:45.222Z,98661.66
2023-03-28T11:05:28.715Z,98657.28
2023-03-28T11:08:33.388Z,98661.97
2023-03-28T11:11:42.243Z,98659.91
2023-03-28T11:14:17.967Z,98659.69
2023-03-28T11:16:44.470Z,98632.91
2023-03-28T11:19:30.213Z,98622.22
2023-03-28T11:22:03.352Z,98616.63
2023-03-28T11:25:01.812Z,98615.16
2023-03-28T11:27:42.120Z,98599.03
2023-03-28T11:30:24.210Z,98586.97
2023-03-28T11:33:05.632Z,98593.38
2023-03-28T11:35:39.148Z,98581.69
2023-03-28T11:38:15.698Z,98582.94
2023-03-28T11:41:13.260Z,98591.97
2023-03-28T11:43:58.898Z,98573.31
2023-03-28T11:46:33.032Z,98577.84
2023-03-28T11:49:21.622Z,98566.38
2023-03-28T11:52:12.775Z,98566.66
2023-03-28T11:54:45.548Z,98551.72
2023-03-28T11:57:29.006Z,98554.81
2023-03-28T12:00:06.993Z,98547.00
2023-03-28T12:02:54.317Z,98551.31
2023-03-28T12:05:32.968Z,98554.19
2023-03-28T12:08:08.275Z,98547.41
2023-03-28T12:10:37.002Z,98555.69
2023-03-28T12:13:11.078Z,98558.13
2023-03-28T12:15:43.926Z,98545.78
2023-03-28T12:18:52.212Z,98553.38
2023-03-28T12:21:34.425Z,98547.44
2023-03-28T12:24:16.055Z,98555.44
2023-03-28T12:27:00.948Z,98549.56
2023-03-28T12:29:34.818Z,98541.88
2023-03-28T12:32:06.958Z,98540.50
2023-03-28T12:34:41.717Z,98538.16
2023-03-28T12:37:19.713Z,98547.53
2023-03-28T12:39:55.849Z,98540.94
2023-03-28T12:42:27.635Z,98521.03
2023-03-28T12:45:09.682Z,98534.00
2023-03-28T12:47:42.784Z,98515.97
2023-03-28T12:50:12.148Z,98518.25
2023-03-28T12:52:41.986Z,98505.09
2023-03-28T12:55:28.796Z,98503.06
2023-03-28T12:58:13.444Z,98491.97
2023-03-28T13:00:49.253Z,98483.09
2023-03-28T13:03:30.920Z,98487.59
2023-03-28T13:06:22.169Z,98482.63
2023-03-28T13:09:05.632Z,98474.13
2023-03-28T13:11:58.114Z,98469.88
2023-03-28T13:14:39.419Z,98466.16
2023-03-28T13:17:23.438Z,98446.47
2023-03-28T13:20:12.711Z,98437.09
2023-03-28T13:22:42.254Z,98419.16
2023-03-28T13:25:42.772Z,98409.34
2023-03-28T13:28:12.067Z,98416.22
2023-03-28T13:31:02.085Z,98418.25
2023-03-28T13:33:32.501Z,98422.66
2023-03-28T13:35:58.996Z,98428.75
2023-03-28T13:38:28.619Z,98430.19
2023-03-28T13:41:02.027Z,98417.41
2023-03-28T13:43:58.892Z,98423.78
2023-03-28T13:46:25.789Z,98415.75
2023-03-28T13:49:00.957Z,98369.19
2023-03-28T13:51:33.834Z,98400.13
2023-03-28T13:54:00.600Z,98413.41
2023-03-28T13:56:32.623Z,98409.34
2023-03-28T13:59:00.603Z,98388.00
2023-03-28T14:01:42.094Z,98404.94
2023-03-28T14:04:32.270Z,98399.09
2023-03-28T14:07:00.169Z,98396.16
2023-03-28T14:09:26.602Z,98385.34
2023-03-28T14:12:08.667Z,98381.00
2023-03-28T14:14:39.906Z,98371.56
2023-03-28T14:17:11.629Z,98368.72
2023-03-28T14:19:41.780Z,98362.63
2023-03-28T14:22:15.711Z,98363.00
2023-03-28T14:24:43.328Z,98357.84
2023-03-28T14:27:15.108Z,98371.94
2023-03-28T14:29:54.384Z,98370.44
2023-03-28T14:32:32.952Z,98360.09
2023-03-28T14:35:30.740Z,98362.78
2023-03-28T14:38:00.927Z,98349.66
2023-03-28T14:40:29.800Z,98349.19
2023-03-28T14:43:05.373Z,98351.28
2023-03-28T14:45:37.824Z,98342.00
2023-03-28T14:48:08.718Z,98340.84
2023-03-28T14:50:39.611Z,98342.19
2023-03-28T14:53:12.744Z,98344.69
2023-03-28T14:55:41.849Z,98336.16
2023-03-28T14:58:13.238Z,98327.69
2023-03-28T15:00:48.021Z,98336.31
2023-03-28T15:03:17.735Z,98337.31
2023-03-28T15:05:47.325Z,98341.16
2023-03-28T15:08:34.581Z,98329.84
2023-03-28T15:11:05.770Z,98326.09
2023-03-28T15:13:41.062Z,98322.09
2023-03-28T15:16:09.084Z,98323.25
2023-03-28T15:18:47.360Z,98315.31
2023-03-28T15:21:15.019Z,98309.81
2023-03-28T15:23:49.233Z,98306.13
2023-03-28T15:26:43.483Z,98303.16
2023-03-28T15:29:14.876Z,98291.66
2023-03-28T15:31:41.582Z,98302.19
2023-03-28T15:34:18.536Z,98284.25
2023-03-28T15:36:57.730Z,98288.25
2023-03-28T15:39:34.369Z,98274.66
2023-03-28T15:42:20.811Z,98273.16
2023-03-28T15:44:59.248Z,98264.53
2023-03-28T15:47:31.476Z,98251.22
2023-03-28T15:50:06.293Z,98265.09
2023-03-28T15:52:34.397Z,98252.53
2023-03-28T15:55:02.388Z,98239.16
2023-03-28T15:57:30.602Z,98232.44
2023-03-28T15:59:58.407Z,98248.97
2023-03-28T16:02:28.122Z,98242.50
2023-03-28T16:05:01.628Z,98235.31
2023-03-28T16:07:49.050Z,98234.16
2023-03-28T16:10:20.640Z,98233.59
2023-03-28T16:12:47.564Z,98234.00
2023-03-28T16:15:14.628Z,98227.75
2023-03-28T16:17:43.194Z,98230.09
2023-03-28T16:20:23.959Z,98224.09
2023-03-28T16:22:50.770Z,98222.75
2023-03-28T16:25:17.347Z,98219.72
2023-03-28T16:27:44.060Z,98203.09
2023-03-28T16:30:24.765Z,98210.53
2023-03-28T16:32:52.942Z,98187.97
2023-03-28T16:35:20.228Z,98203.69
2023-03-28T16:37:47.386Z,98167.50
2023-03-28T16:40:15.598Z,98203.34
2023-03-28T16:42:42.098Z,98207.88
2023-03-28T16:45:11.467Z,98202.53
2023-03-28T16:47:38.914Z,98207.50
2023-03-28T16:50:08.721Z,98211.63
2023-03-28T16:52:40.214Z,98222.34
2023-03-28T16:55:14.250Z,98233.50
2023-03-28T16:57:41.612Z,98231.00
2023-03-28T17:00:17.756Z,98227.13
2023-03-28T17:02:46.066Z,98230.19
2023-03-28T17:05:13.135Z,98231.63
2023-03-28T17:07:39.652Z,98226.47
2023-03-28T17:10:06.777Z,98222.34
2023-03-28T17:12:34.191Z,98200.53
2023-03-28T17:15:00.784Z,98234.31
2023-03-28T17:17:27.409Z,98226.88
2023-03-28T17:19:57.080Z,98219.63
2023-03-28T17:22:27.161Z,98226.78
2023-03-28T17:25:00.165Z,98234.34
2023-03-28T17:27:26.739Z,98246.41
2023-03-28T17:29:59.261Z,98211.31
2023-03-28T17:32:26.012Z,98236.41
2023-03-28T17:34:52.996Z,98239.63
2023-03-28T17:37:24.417Z,98243.72
2023-03-28T17:39:51.326Z,98242.84
2023-03-28T17:42:18.300Z,98240.34
2023-03-28T17:44:44.753Z,98242.56
2023-03-28T17:47:11.627Z,98250.09
2023-03-28T17:50:38.299Z,98252.91
2023-03-28T17:53:06.767Z,98192.19
2023-03-28T17:55:34.002Z,98214.88
2023-03-28T17:58:01.169Z,98235.09
2023-03-28T18:00:30.172Z,98216.16
2023-03-28T18:03:01.588Z,98197.50
2023-03-28T18:05:28.590Z,98188.03
2023-03-28T18:07:58.153Z,98239.56
2023-03-28T18:10:27.787Z,98234.66
2023-03-28T18:12:55.827Z,98231.00
2023-03-28T18:15:22.341Z,98228.53
2023-03-28T18:17:53.506Z,98230.03
2023-03-28T18:20:22.989Z,98224.16
2023-03-28T18:22:51.526Z,98221.06
2023-03-28T18:25:18.121Z,98235.66
2023-03-28T18:27:44.738Z,98223.25
2023-03-28T18:30:11.834Z,98180.56
2023-03-28T18:32:39.829Z,98176.69
2023-03-28T18:35:10.182Z,98238.94
2023-03-28T18:37:40.246Z,98223.97
2023-03-28T18:40:07.969Z,98239.22
2023-03-28T18:42:37.162Z,98249.47
2023-03-28T18:45:04.368Z,98251.41
2023-03-28T18:47:31.013Z,98261.19
2023-03-28T18:49:58.493Z,98272.06
2023-03-28T18:52:29.836Z,98270.13
2023-03-28T18:54:59.549Z,98279.44
2023-03-28T18:57:28.580Z,98284.34
2023-03-28T18:59:58.631Z,98280.56
2023-03-28T19:02:28.999Z,98280.63
2023-03-28T19:04:56.908Z,98266.44
2023-03-28T19:07:23.433Z,98274.13
2023-03-28T19:09:50.105Z,98278.34
2023-03-28T19:12:17.013Z,98270.91
2023-03-28T19:14:43.489Z,98281.63
2023-03-28T19:17:09.963Z,98265.09
2023-03-28T19:19:38.722Z,98270.06
2023-03-28T19:22:06.308Z,98266.44
2023-03-28T19:24:33.244Z,98268.09
2023-03-28T19:27:01.413Z,98278.53
2023-03-28T19:29:30.067Z,98272.25
2023-03-28T19:31:59.289Z,98287.19
2023-03-28T19:34:27.986Z,98276.59
2023-03-28T19:36:54.462Z,98282.84
2023-03-28T19:39:21.106Z,98289.84
2023-03-28T19:41:47.607Z,98288.19
2023-03-28T19:44:14.081Z,98284.88
2023-03-28T19:46:40.664Z,98272.59
2023-03-28T19:49:07.143Z,98284.22
2023-03-28T19:51:34.302Z,98287.19
2023-03-28T19:54:01.162Z,98287.69
2023-03-28T19:56:30.944Z,98282.25
2023-03-28T19:58:57.567Z,98294.47
2023-03-28T20:01:24.158Z,98302.44
2023-03-28T20:03:53.107Z,98290.22
2023-03-28T20:06:21.766Z,98285.59
2023-03-28T20:08:48.679Z,98302.44
2023-03-28T20:11:16.080Z,98293.84
2023-03-28T20:13:43.480Z,98301.34
2023-03-28T20:16:11.885Z,98303.34
2023-03-28T20:18:39.363Z,98301.53
2023-03-28T20:21:09.045Z,98297.09
2023-03-28T20:23:36.023Z,98308.06
2023-03-28T20:26:23.196Z,98319.19
2023-03-28T20:28:57.333Z,98315.06
2023-03-28T20:31:23.963Z,98317.53
2023-03-28T20:33:52.679Z,98310.41
2023-03-28T20:36:19.203Z,98320.38
2023-03-28T20:38:45.798Z,98331.34
2023-03-28T20:41:17.662Z,98328.34
2023-03-28T20:43:47.089Z,98325.50
2023-03-28T20:46:18.482Z,98322.22
2023-03-28T20:48:46.506Z,98320.53
2023-03-28T20:51:16.974Z,98312.28
2023-03-28T20:53:49.608Z,98311.78
2023-03-28T20:56:18.890Z,98316.56
2023-03-28T20:58:45.997Z,98320.22
2023-03-28T21:01:14.131Z,98330.84
2023-03-28T21:03:50.239Z,98325.56
2023-03-28T21:06:22.405Z,98332.03
2023-03-28T21:08:50.889Z,98335.66
2023-03-28T21:11:19.711Z,98321.25
2023-03-28T21:13:46.191Z,98313.63
2023-03-28T21:16:14.399Z,98305.31
2023-03-28T21:18:41.272Z,98308.97
2023-03-28T21:21:09.051Z,98307.28
2023-03-28T21:23:39.393Z,98307.16
2023-03-28T21:26:21.252Z,98310.63
2023-03-28T21:28:48.843Z,98314.06
2023-03-28T21:31:19.827Z,98309.91
2023-03-28T21:33:49.678Z,98298.28
2023-03-28T21:36:20.159Z,98299.97
2023-03-28T21:38:47.371Z,98310.69
2023-03-28T21:41:14.455Z,98296.16
2023-03-28T21:43:41.085Z,98303.94
2023-03-28T21:46:08.871Z,98300.78
2023-03-28T21:48:36.832Z,98312.06
2023-03-28T21:51:04.633Z,98300.50
2023-03-28T21:53:36.896Z,98289.56
2023-03-28T21:56:04.830Z,98296.38
2023-03-28T21:58:33.379Z,98299.66
2023-03-28T22:01:04.821Z,98310.13
2023-03-28T22:03:37.823Z,98305.47
2023-03-28T22:06:05.005Z,98297.84
2023-03-28T22:08:34.390Z,98288.41
2023-03-28T22:11:05.722Z,98299.34
2023-03-28T22:13:34.989Z,98306.66
2023-03-28T22:16:03.035Z,98304.81
2023-03-28T22:18:33.548Z,98300.69
2023-03-28T22:21:04.968Z,98291.75
2023-03-28T22:23:32.857Z,98284.78
2023-03-28T22:25:59.373Z,98266.53
2023-03-28T22:28:26.075Z,98289.22
2023-03-28T22:30:56.692Z,98291.72
2023-03-28T22:33:25.033Z,98283.09
2023-03-28T22:35:51.837Z,98293.88
2023-03-28T22:38:19.500Z,98294.56
2023-03-28T22:40:46.429Z,98294.38
2023-03-28T22:43:12.858Z,98295.03
2023-03-28T22:45:39.315Z,98279.78
2023-03-28T22:48:14.153Z,98291.53
2023-03-28T22:50:42.037Z,98285.25
2023-03-28T22:53:09.937Z,98299.03
2023-03-28T22:55:36.797Z,98296.38
2023-03-28T22:58:05.085Z,98289.91
2023-03-28T23:00:31.763Z,98305.47
2023-03-28T23:02:58.264Z,98285.56
2023-03-28T23:05:24.882Z,98307.47
2023-03-28T23:07:52.777Z,98300.47
2023-03-28T23:10:19.849Z,98296.84
2023-03-28T23:12:47.385Z,98309.28
2023-03-28T23:15:14.643Z,98311.09
2023-03-28T23:17:42.700Z,98312.56
2023-03-28T23:20:12.466Z,98306.78
2023-03-28T23:22:42.640Z,98306.13
2023-03-28T23:25:12.336Z,98304.81
2023-03-28T23:27:39.625Z,98300.97
2023-03-28T23:30:12.329Z,98298.31
2023-03-28T23:32:39.425Z,98293.50
2023-03-28T23:35:10.477Z,98288.69
2023-03-28T23:37:40.076Z,98292.31
2023-03-28T23:40:14.495Z,98296.47
2023-03-28T23:42:44.019Z,98282.06
2023-03-28T23:45:12.584Z,98285.16
2023-03-28T23:47:39.138Z,98289.84
2023-03-28T23:50:10.244Z,98281.72
2023-03-28T23:52:39.973Z,98281.34
2023-03-28T23:55:08.501Z,98291.31
2023-03-28T23:57:37.249Z,98285.16
